Time;durP1;ratioP1;P1;durP2;ratioP2;P2;SDS_P1;SDS_P2;PMS_P1;PMS_P2;Temp;Humidity;BMP_temperature;BMP_pressure;BME280_temperature;BME280_humidity;BME280_pressure;Samples;Min_cycle;Max_cycle;Signal;HPM_P1;HPM_P2
2024/04/09 00:04:56;;;;;;;1.13;1.02;;;;;;;18.11;82.10;153246.81;11287336;26;20003;-73
2024/04/09 00:09:58;;;;;;;1.42;1.02;;;;;;;18.11;82.46;153248.09;11284826;26;20511;-73
2024/04/09 00:15:00;;;;;;;2.10;1.10;;;;;;;18.08;82.67;153240.28;11284631;26;20022;-74
2024/04/09 00:20:09;;;;;;;1.27;1.05;;;;;;;18.09;82.16;153241.56;11286299;26;19999;-74
2024/04/09 00:25:12;;;;;;;3.75;1.20;;;;;;;18.28;81.41;153290.94;11285779;26;20007;-73
2024/04/09 00:30:17;;;;;;;2.63;1.10;;;;;;;18.11;81.96;153248.09;11283943;26;19999;-74
2024/04/09 00:35:23;;;;;;;0.80;0.80;;;;;;;17.93;83.42;153201.38;11285256;26;19999;-74
2024/04/09 00:40:26;;;;;;;1.67;1.35;;;;;;;17.96;82.80;153209.13;11283821;26;19994;-74
2024/04/09 00:45:29;;;;;;;1.90;1.15;;;;;;;18.08;82.55;153240.28;11285135;26;19999;-74
2024/04/09 00:50:32;;;;;;;1.25;1.15;;;;;;;18.22;81.49;153274.03;11284392;26;20003;-75
2024/04/09 00:55:40;;;;;;;1.80;1.00;;;;;;;18.08;81.77;153240.28;11283891;26;20045;-74
2024/04/09 01:00:43;;;;;;;1.10;0.98;;;;;;;18.10;81.62;153244.16;11283809;26;20093;-73
2024/04/09 01:05:45;;;;;;;2.20;0.90;;;;;;;17.96;82.26;153209.13;11283579;26;20025;-74
2024/04/09 01:10:47;;;;;;;0.90;0.90;;;;;;;17.95;82.71;153205.25;11284689;26;19998;-74
2024/04/09 01:15:49;;;;;;;1.85;0.90;;;;;;;17.83;83.49;153175.38;11283313;26;19995;-74
2024/04/09 01:20:51;;;;;;;1.60;0.98;;;;;;;17.85;83.22;153180.59;11288929;26;20023;-74
2024/04/09 01:25:53;;;;;;;1.52;1.10;;;;;;;17.74;83.99;153153.31;11290965;26;20007;-74
2024/04/09 01:30:55;;;;;;;1.23;0.93;;;;;;;17.70;83.43;153141.56;11290970;26;20037;-74
2024/04/09 01:35:57;;;;;;;1.08;0.75;;;;;;;17.73;83.91;153149.38;11290990;26;20010;-73
2024/04/09 01:40:59;;;;;;;0.80;0.80;;;;;;;17.63;84.45;153124.72;11291401;26;20039;-75
2024/04/09 01:46:01;;;;;;;1.02;0.80;;;;;;;17.55;84.65;153103.97;11290696;26;20470;-73
2024/04/09 01:51:11;;;;;;;1.17;0.90;;;;;;;17.73;83.10;153150.66;11290723;26;20005;-73
2024/04/09 01:56:15;;;;;;;11.80;1.10;;;;;;;17.73;82.96;153149.38;11290549;26;20072;-73
2024/04/09 02:01:17;;;;;;;0.85;0.85;;;;;;;17.60;83.57;153118.22;11289490;26;20002;-74
2024/04/09 02:06:19;;;;;;;1.15;0.80;;;;;;;17.54;83.72;153101.38;11290673;26;20042;-74
2024/04/09 02:11:26;;;;;;;1.13;0.70;;;;;;;17.56;83.69;153107.84;11288058;26;20014;-75
2024/04/09 02:16:30;;;;;;;2.17;0.80;;;;;;;17.47;83.84;153084.47;11289401;26;20417;-74
2024/04/09 02:21:32;;;;;;;0.80;0.80;;;;;;;17.42;83.73;153070.22;11289165;26;20413;-74
2024/04/09 02:26:34;;;;;;;1.45;0.88;;;;;;;17.35;83.56;153054.66;11289235;26;20006;-74
2024/04/09 02:31:36;;;;;;;1.55;1.23;;;;;;;17.34;84.44;153052.03;11288771;26;20007;-75
2024/04/09 02:36:38;;;;;;;1.40;0.88;;;;;;;17.46;82.70;153080.59;11289101;26;20028;-74
2024/04/09 02:41:40;;;;;;;1.30;0.80;;;;;;;17.44;82.78;153075.38;11288273;26;20038;-73
2024/04/09 02:46:42;;;;;;;1.88;0.93;;;;;;;17.39;83.00;153065.00;11256731;26;20456;-74
2024/04/09 02:51:43;;;;;;;1.05;0.80;;;;;;;17.37;82.89;153058.53;11288808;26;20083;-73
2024/04/09 02:56:45;;;;;;;1.30;0.80;;;;;;;17.29;83.43;153039.06;11286915;26;20017;-73
2024/04/09 03:01:48;;;;;;;1.13;0.80;;;;;;;17.14;83.87;153000.16;11288114;26;20075;-73
2024/04/09 03:06:50;;;;;;;1.58;0.93;;;;;;;17.27;82.92;153033.91;11289321;26;20462;-73
2024/04/09 03:11:52;;;;;;;1.67;0.80;;;;;;;17.40;82.16;153066.34;11289361;26;20011;-74
2024/04/09 03:16:54;;;;;;;1.40;0.85;;;;;;;17.25;82.92;153028.69;11289550;26;19999;-73
2024/04/09 03:21:56;;;;;;;1.10;0.70;;;;;;;17.04;84.09;152975.47;11287869;26;20383;-74
2024/04/09 03:26:58;;;;;;;1.67;0.80;;;;;;;16.74;86.33;152897.69;11287952;26;20322;-73
2024/04/09 03:32:00;;;;;;;1.00;0.90;;;;;;;16.56;87.58;152853.56;11285623;26;20003;-74
2024/04/09 03:37:02;;;;;;;0.70;0.65;;;;;;;16.98;84.71;152958.66;11285765;26;20451;-74
2024/04/09 03:42:04;;;;;;;2.75;0.93;;;;;;;16.90;85.09;152939.16;11285559;26;20018;-73
2024/04/09 03:47:07;;;;;;;1.52;0.80;;;;;;;16.87;85.32;152931.44;11287675;26;19999;-73
2024/04/09 03:52:09;;;;;;;1.23;0.80;;;;;;;16.74;85.99;152899.00;11287046;26;20459;-73
2024/04/09 03:57:11;;;;;;;2.38;0.90;;;;;;;16.71;85.71;152889.84;11289137;26;20007;-73
2024/04/09 04:02:13;;;;;;;1.00;0.85;;;;;;;16.83;85.46;152922.34;11285685;26;20416;-74
2024/04/09 04:07:16;;;;;;;2.72;0.85;;;;;;;16.81;85.23;152917.13;11287777;26;20030;-75
2024/04/09 04:12:18;;;;;;;0.82;0.73;;;;;;;16.67;85.84;152880.75;11285326;26;20080;-74
2024/04/09 04:17:20;;;;;;;2.15;1.15;;;;;;;16.72;85.59;152892.44;11286619;26;20147;-73
2024/04/09 04:22:22;;;;;;;1.70;0.90;;;;;;;16.73;84.89;152896.34;11287410;26;20056;-73
2024/04/09 04:27:23;;;;;;;1.17;1.02;;;;;;;16.71;85.38;152891.16;11285914;26;20149;-75
2024/04/09 04:32:27;;;;;;;1.23;0.90;;;;;;;16.85;84.40;152926.22;11286275;26;20080;-74
2024/04/09 04:37:29;;;;;;;1.23;0.93;;;;;;;16.63;84.98;152870.38;11286892;26;19998;-72
2024/04/09 04:42:31;;;;;;;0.65;0.65;;;;;;;16.65;85.17;152875.59;11286097;26;20031;-72
2024/04/09 04:47:33;;;;;;;1.20;0.98;;;;;;;16.73;83.90;152895.06;11285427;26;19999;-77
2024/04/09 04:52:35;;;;;;;1.08;0.82;;;;;;;16.64;85.09;152874.31;11289356;26;20013;-78
2024/04/09 04:57:37;;;;;;;0.90;0.90;;;;;;;16.72;84.34;152893.78;11291281;26;20042;-71
2024/04/09 05:02:38;;;;;;;1.00;0.85;;;;;;;17.06;82.10;152980.69;11292430;26;20014;-72
2024/04/09 05:07:40;;;;;;;0.65;0.65;;;;;;;16.94;83.12;152948.25;11291760;26;20002;-74
2024/04/09 05:12:47;;;;;;;1.00;0.90;;;;;;;16.83;83.81;152921.03;11291167;26;20007;-75
2024/04/09 05:17:49;;;;;;;1.17;0.98;;;;;;;16.97;83.46;152956.06;11291397;26;20006;-74
2024/04/09 05:22:51;;;;;;;1.63;0.85;;;;;;;16.95;83.41;152950.84;11290726;26;20090;-74
2024/04/09 05:27:54;;;;;;;1.00;0.90;;;;;;;17.44;79.68;153075.38;11291784;26;20044;-73
2024/04/09 05:32:56;;;;;;;0.90;0.90;;;;;;;17.32;81.55;153045.56;11290622;26;20010;-75
2024/04/09 05:37:59;;;;;;;0.77;0.75;;;;;;;17.48;79.98;153085.78;11292917;26;19991;-73
2024/04/09 05:43:01;;;;;;;0.98;0.75;;;;;;;17.62;79.77;153122.16;11291347;26;20047;-75
2024/04/09 05:48:03;;;;;;;0.90;0.82;;;;;;;17.81;77.71;153170.19;11290734;26;19999;-74
2024/04/09 05:53:05;;;;;;;1.35;0.77;;;;;;;17.88;78.11;153189.69;11288161;26;20003;-73
2024/04/09 05:58:07;;;;;;;0.70;0.60;;;;;;;17.91;78.13;153196.16;11289656;26;20013;-74
2024/04/09 06:03:09;;;;;;;1.25;0.70;;;;;;;18.10;76.34;153244.16;11290123;26;20035;-74
2024/04/09 06:08:11;;;;;;;1.70;1.00;;;;;;;18.41;73.35;153323.34;11288490;26;20010;-74
2024/04/09 06:13:13;;;;;;;2.13;0.88;;;;;;;18.43;74.09;153328.56;11288582;26;20042;-74
2024/04/09 06:18:15;;;;;;;1.10;0.90;;;;;;;18.69;72.37;153394.88;11286999;26;20475;-74
2024/04/09 06:23:17;;;;;;;1.67;1.00;;;;;;;18.74;73.43;153406.56;11288497;26;20018;-74
2024/04/09 06:28:19;;;;;;;1.30;0.90;;;;;;;18.82;73.38;153427.34;11288888;26;20006;-73
2024/04/09 06:33:21;;;;;;;1.02;0.77;;;;;;;19.02;72.52;153479.25;11289707;26;20470;-74
2024/04/09 06:38:23;;;;;;;1.52;0.93;;;;;;;19.20;71.95;153524.72;11289746;26;20048;-74
2024/04/09 06:43:25;;;;;;;2.92;1.17;;;;;;;19.36;70.19;153566.31;11289308;26;20009;-73
2024/04/09 06:48:27;;;;;;;5.32;0.73;;;;;;;19.46;70.54;153591.00;11288585;26;20369;-74
2024/04/09 06:53:30;;;;;;;0.93;0.63;;;;;;;19.77;69.02;153669.03;11289066;26;20481;-74
2024/04/09 06:58:32;;;;;;;6.05;0.88;;;;;;;19.77;68.65;153669.03;11289699;26;20030;-74
2024/04/09 07:03:33;;;;;;;1.33;0.93;;;;;;;19.98;66.25;153722.31;11291326;26;19999;-73
2024/04/09 07:08:35;;;;;;;1.05;0.73;;;;;;;19.93;66.42;153710.63;11289849;26;20035;-73
2024/04/09 07:13:37;;;;;;;1.38;0.77;;;;;;;20.07;66.00;153747.00;11290833;26;19998;-74
2024/04/09 07:18:42;;;;;;;0.95;0.73;;;;;;;20.45;63.69;153843.19;11289461;26;20031;-73
2024/04/09 07:23:44;;;;;;;1.40;0.70;;;;;;;20.54;62.96;153866.69;11288462;26;20019;-74
2024/04/09 07:28:46;;;;;;;0.60;0.60;;;;;;;20.62;64.04;153887.44;11289036;26;20347;-74
2024/04/09 07:33:49;;;;;;;1.05;0.80;;;;;;;20.83;62.70;153940.78;11289140;26;20139;-74
2024/04/09 07:38:54;;;;;;;0.73;0.73;;;;;;;21.13;62.76;154017.53;11289247;26;20412;-74
2024/04/09 07:43:56;;;;;;;0.60;0.52;;;;;;;21.27;62.52;154052.66;11288927;26;20478;-73
2024/04/09 07:49:00;;;;;;;1.70;0.80;;;;;;;21.65;60.44;154149.00;11287428;26;20064;-75
2024/04/09 07:54:02;;;;;;;1.52;0.95;;;;;;;21.95;59.21;154225.75;11285947;26;20455;-73
2024/04/09 07:59:04;;;;;;;0.85;0.57;;;;;;;21.98;58.89;154233.56;11286232;26;20017;-75
2024/04/09 08:04:07;;;;;;;0.90;0.50;;;;;;;22.07;58.30;154255.69;11286890;26;20009;-73
2024/04/09 08:09:11;;;;;;;0.77;0.70;;;;;;;21.80;57.61;154186.72;11287165;26;20028;-74
2024/04/09 08:14:13;;;;;;;2.75;0.85;;;;;;;22.02;56.81;154243.97;11287587;26;20009;-74
2024/04/09 08:19:15;;;;;;;2.53;0.77;;;;;;;22.04;56.82;154247.88;11286722;26;20380;-74
2024/04/09 08:24:17;;;;;;;1.73;0.88;;;;;;;22.19;56.42;154287.00;11287875;26;19995;-74
2024/04/09 08:29:19;;;;;;;0.65;0.60;;;;;;;22.50;54.62;154366.41;11286272;26;20014;-74
2024/04/09 08:34:21;;;;;;;0.60;0.60;;;;;;;22.69;54.78;154413.28;11284798;26;20405;-73
2024/04/09 08:39:24;;;;;;;0.70;0.50;;;;;;;23.13;52.21;154527.91;11283503;26;20011;-73
2024/04/09 08:44:30;;;;;;;1.02;0.90;;;;;;;23.32;54.29;154574.81;11283861;26;20429;-73
2024/04/09 08:49:32;;;;;;;0.95;0.65;;;;;;;23.02;53.00;154499.28;11284125;26;19998;-73
2024/04/09 08:54:36;;;;;;;2.00;0.80;;;;;;;23.42;53.07;154600.88;11283698;26;20021;-73
2024/04/09 08:59:38;;;;;;;0.60;0.60;;;;;;;23.72;52.60;154677.75;11283711;26;20003;-73
2024/04/09 09:04:41;;;;;;;1.88;0.80;;;;;;;23.76;51.54;154686.91;11283172;26;20009;-74
2024/04/09 09:09:44;;;;;;;0.68;0.60;;;;;;;23.87;52.61;154715.59;11283228;26;20007;-73
2024/04/09 09:15:04;;;;;;;0.93;0.80;;;;;;;24.08;50.10;154768.97;11283088;26;20031;-74
2024/04/09 09:20:09;;;;;;;2.00;1.02;;;;;;;24.44;49.60;154861.59;11284709;26;20039;-74
2024/04/09 09:25:15;;;;;;;0.60;0.60;;;;;;;24.60;48.45;154901.97;11284987;26;19999;-73
2024/04/09 09:30:17;;;;;;;1.40;0.70;;;;;;;25.07;46.61;155021.97;11282958;26;20420;-73
2024/04/09 09:35:20;;;;;;;0.90;0.80;;;;;;;24.92;48.03;154984.13;11281273;26;19995;-74
2024/04/09 09:40:23;;;;;;;0.50;0.50;;;;;;;25.34;48.06;155091.13;11283405;26;20002;-73
2024/04/09 09:45:25;;;;;;;0.80;0.60;;;;;;;25.64;48.13;155169.38;11289445;26;20019;-73
2024/04/09 09:50:27;;;;;;;0.65;0.65;;;;;;;26.22;46.38;155315.56;11291013;26;20470;-74
2024/04/09 09:55:29;;;;;;;0.80;0.70;;;;;;;26.52;44.15;155392.56;11290667;26;19999;-73
2024/04/09 10:00:34;;;;;;;1.15;0.60;;;;;;;26.78;45.79;155460.44;11289189;26;20455;-73
2024/04/09 10:05:38;;;;;;;0.87;0.57;;;;;;;26.94;42.86;155499.63;11289102;26;20003;-72
2024/04/09 10:10:42;;;;;;;1.02;0.75;;;;;;;26.80;43.10;155464.41;11290122;26;19999;-73
2024/04/09 10:15:47;;;;;;;1.23;0.90;;;;;;;27.05;44.39;155529.69;11292765;26;20003;-72
2024/04/09 10:20:56;;;;;;;0.85;0.60;;;;;;;27.68;42.18;155690.34;11292763;26;20019;-73
2024/04/09 10:25:58;;;;;;;0.90;0.55;;;;;;;28.07;41.55;155789.66;11293565;26;19995;-73
2024/04/09 10:31:01;;;;;;;1.13;0.80;;;;;;;28.18;41.74;155818.38;11290419;26;20013;-73
2024/04/09 10:36:08;;;;;;;0.95;0.50;;;;;;;28.69;40.82;155949.09;11290291;26;20021;-71
2024/04/09 10:41:11;;;;;;;0.70;0.70;;;;;;;28.93;40.21;156010.50;11289859;26;20002;-73
2024/04/09 10:46:14;;;;;;;0.80;0.73;;;;;;;29.02;40.67;156032.78;11291826;26;20016;-73
2024/04/09 10:51:17;;;;;;;1.00;0.68;;;;;;;29.43;37.90;156138.66;11293212;26;20467;-73
2024/04/09 10:56:23;;;;;;;3.85;0.77;;;;;;;29.44;33.15;156141.31;11290629;26;20018;-72
2024/04/09 11:01:25;;;;;;;4.15;1.50;;;;;;;29.53;35.16;156164.84;11288072;26;19998;-72
2024/04/09 11:06:27;;;;;;;4.70;1.08;;;;;;;29.93;30.28;156266.88;11288171;26;19999;-73
2024/04/09 11:11:30;;;;;;;2.85;0.93;;;;;;;29.73;31.88;156215.84;11289142;26;20009;-74
2024/04/09 11:16:31;;;;;;;2.72;0.90;;;;;;;30.02;30.57;156290.41;11291149;26;20003;-73
2024/04/09 11:21:34;;;;;;;1.90;0.95;;;;;;;30.21;33.37;156337.53;11289315;26;19999;-72
2024/04/09 11:26:37;;;;;;;2.90;1.00;;;;;;;30.37;30.28;156379.34;11289514;26;20022;-75
2024/04/09 11:31:39;;;;;;;2.28;1.15;;;;;;;29.82;31.33;156238.06;11293142;26;20013;-74
2024/04/09 11:36:46;;;;;;;1.92;1.10;;;;;;;29.34;34.07;156115.13;11294761;26;20479;-72
2024/04/09 11:41:49;;;;;;;2.95;1.10;;;;;;;29.58;33.16;156177.94;11297016;26;20008;-73
2024/04/09 11:46:51;;;;;;;1.80;0.90;;;;;;;29.47;32.87;156149.13;11294080;26;20003;-73
2024/04/09 11:51:53;;;;;;;2.28;1.08;;;;;;;29.03;34.30;156036.69;11292333;26;19999;-71
2024/04/09 11:56:55;;;;;;;3.95;1.27;;;;;;;29.28;34.07;156099.44;11290914;26;20023;-73
2024/04/09 12:01:57;;;;;;;3.45;0.98;;;;;;;28.73;33.08;155958.22;11289828;26;20026;-73
2024/04/09 12:06:59;;;;;;;6.28;1.05;;;;;;;28.65;34.28;155938.66;11289518;26;20002;-72
2024/04/09 12:12:01;;;;;;;3.22;1.02;;;;;;;28.38;34.85;155870.72;11289320;26;20373;-72
2024/04/09 12:17:05;;;;;;;3.80;1.33;;;;;;;27.96;36.25;155762.19;11290415;26;20006;-73
2024/04/09 12:22:07;;;;;;;3.13;1.30;;;;;;;27.85;35.87;155734.78;11290337;26;20361;-72
2024/04/09 12:27:09;;;;;;;5.47;1.80;;;;;;;27.57;35.08;155662.88;11287734;26;19999;-72
2024/04/09 12:32:11;;;;;;;4.38;1.08;;;;;;;27.26;36.30;155581.94;11284843;26;20003;-73
2024/04/09 12:37:12;;;;;;;3.40;1.33;;;;;;;26.71;38.34;155440.91;11305900;26;20003;-74
2024/04/09 12:42:14;;;;;;;3.70;1.17;;;;;;;26.62;39.12;155418.72;11304452;26;20463;-73
2024/04/09 12:47:19;;;;;;;8.63;1.83;;;;;;;26.34;38.01;155348.19;11311521;26;20381;-73
2024/04/09 12:52:23;;;;;;;6.10;1.80;;;;;;;26.15;37.19;155299.88;11360300;26;20366;-74
2024/04/09 12:57:25;;;;;;;4.88;1.30;;;;;;;26.12;36.93;155292.09;11309492;26;20031;-72
2024/04/09 13:02:27;;;;;;;4.85;1.40;;;;;;;26.00;35.47;155260.75;11284671;26;20046;-73
2024/04/09 13:07:29;;;;;;;14.52;1.95;;;;;;;25.61;35.14;155161.53;11284567;26;20017;-73
2024/04/09 13:12:31;;;;;;;5.38;1.67;;;;;;;25.32;35.71;155085.88;11324748;26;20011;-73
2024/04/09 13:17:33;;;;;;;5.63;1.23;;;;;;;25.47;36.47;155125.03;11289564;26;20010;-74
2024/04/09 13:22:36;;;;;;;8.02;1.52;;;;;;;25.40;36.48;155106.75;11260973;26;20005;-74
2024/04/09 13:27:38;;;;;;;5.97;1.92;;;;;;;25.01;36.97;155006.28;11293748;26;20003;-73
2024/04/09 13:32:39;;;;;;;5.78;1.83;;;;;;;25.23;38.46;155062.41;11292102;26;20380;-74
2024/04/09 13:37:43;;;;;;;5.07;2.08;;;;;;;25.19;38.27;155051.97;11292084;26;20328;-74
2024/04/09 13:42:46;;;;;;;8.60;1.58;;;;;;;25.21;39.40;155058.50;11304628;26;20005;-73
2024/04/09 13:47:48;;;;;;;5.97;1.33;;;;;;;25.20;39.33;155054.63;11366992;26;20014;-74
2024/04/09 13:52:50;;;;;;;4.22;1.60;;;;;;;25.00;40.09;155003.69;11368144;26;20074;-74
2024/04/09 13:57:52;;;;;;;6.20;1.70;;;;;;;25.00;40.35;155004.97;11368494;26;20010;-73
2024/04/09 14:02:56;;;;;;;4.93;1.77;;;;;;;24.66;41.51;154918.97;11321442;26;20014;-73
2024/04/09 14:07:58;;;;;;;10.13;2.17;;;;;;;24.56;41.69;154891.56;11293226;26;20007;-74
2024/04/09 14:13:00;;;;;;;7.72;2.08;;;;;;;24.46;42.73;154865.50;11290435;26;20461;-72
2024/04/09 14:18:03;;;;;;;8.70;1.88;;;;;;;24.36;42.89;154842.00;11289579;26;20052;-73
2024/04/09 14:23:05;;;;;;;5.50;1.55;;;;;;;24.49;41.75;154874.63;11289525;26;19999;-74
2024/04/09 14:28:08;;;;;;;2.95;1.17;;;;;;;24.34;43.53;154836.75;11288313;26;19999;-73
2024/04/09 14:33:09;;;;;;;12.32;2.13;;;;;;;24.39;43.52;154848.53;11289179;26;20005;-74
2024/04/09 14:38:11;;;;;;;6.13;1.50;;;;;;;24.53;43.60;154883.75;11290330;26;20474;-73
2024/04/09 14:43:13;;;;;;;4.10;1.27;;;;;;;24.43;43.97;154858.97;11292229;26;20021;-74
2024/04/09 14:48:16;;;;;;;4.68;1.50;;;;;;;24.45;44.47;154864.19;11290740;26;20015;-73
2024/04/09 14:53:18;;;;;;;6.07;1.73;;;;;;;24.30;44.77;154826.31;11291656;26;20057;-73
2024/04/09 14:58:20;;;;;;;5.00;1.20;;;;;;;24.16;45.70;154789.84;11289929;26;20014;-73
2024/04/09 15:03:22;;;;;;;3.80;1.40;;;;;;;24.05;47.40;154762.50;11293550;26;20450;-73
2024/04/09 15:08:27;;;;;;;6.00;1.80;;;;;;;23.87;50.42;154716.88;11289355;26;19999;-72
2024/04/09 15:13:30;;;;;;;5.75;1.63;;;;;;;23.55;52.40;154634.75;11288958;26;20006;-74
2024/04/09 15:18:32;;;;;;;5.43;1.63;;;;;;;23.27;53.64;154563.09;11290057;26;19998;-72
2024/04/09 15:23:35;;;;;;;6.95;1.70;;;;;;;23.09;53.72;154517.50;11288234;26;19995;-74
2024/04/09 15:28:37;;;;;;;10.65;1.58;;;;;;;23.20;53.85;154543.53;11291576;26;19999;-73
2024/04/09 15:33:39;;;;;;;5.60;1.42;;;;;;;23.24;53.44;154555.28;11289078;26;20011;-72
2024/04/09 15:38:41;;;;;;;5.07;1.33;;;;;;;22.94;54.48;154478.44;11303955;26;19998;-73
2024/04/09 15:43:43;;;;;;;6.78;1.35;;;;;;;22.67;54.09;154410.69;11294440;26;19995;-74
2024/04/09 15:48:49;;;;;;;3.35;1.50;;;;;;;22.72;54.02;154421.09;11310870;26;20013;-72
2024/04/09 15:53:51;;;;;;;9.73;1.88;;;;;;;22.57;53.91;154383.31;11287200;26;20003;-73
2024/04/09 15:58:53;;;;;;;11.43;3.10;;;;;;;22.36;55.05;154329.97;11288125;26;20014;-73
2024/04/09 16:03:56;;;;;;;8.85;2.22;;;;;;;22.19;53.32;154287.00;11286419;26;19991;-72
2024/04/09 16:08:58;;;;;;;4.28;1.17;;;;;;;22.01;54.32;154241.41;11289421;26;20007;-74
2024/04/09 16:14:01;;;;;;;3.00;1.05;;;;;;;21.95;55.18;154225.75;11286806;26;19999;-74
2024/04/09 16:19:05;;;;;;;4.07;0.70;;;;;;;21.55;56.74;154124.25;11287527;26;20014;-74
2024/04/09 16:24:12;;;;;;;3.47;1.13;;;;;;;21.49;57.28;154108.66;11285809;26;19998;-73
2024/04/09 16:29:14;;;;;;;4.07;1.33;;;;;;;21.44;59.07;154094.34;11287178;26;20400;-73
2024/04/09 16:34:16;;;;;;;3.95;1.15;;;;;;;21.19;61.68;154030.53;11283913;26;20009;-73
2024/04/09 16:39:19;;;;;;;12.05;2.67;;;;;;;21.00;62.55;153983.72;11286613;26;20451;-73
2024/04/09 16:44:21;;;;;;;2.83;1.20;;;;;;;20.97;63.46;153974.59;11286614;26;20411;-74
2024/04/09 16:49:22;;;;;;;2.42;0.52;;;;;;;20.28;62.48;153800.31;11284618;26;20003;-74
2024/04/09 16:54:25;;;;;;;2.45;0.70;;;;;;;19.84;63.95;153688.53;11285480;26;19991;-72
2024/04/09 16:59:27;;;;;;;0.85;0.50;;;;;;;19.32;65.99;153554.63;11283636;26;20009;-73
2024/04/09 17:04:29;;;;;;;1.02;0.30;;;;;;;18.90;66.34;153448.06;11284419;26;20010;-73
2024/04/09 17:09:31;;;;;;;3.65;0.40;;;;;;;18.64;67.20;153381.84;11285728;26;20011;-74
2024/04/09 17:14:33;;;;;;;1.35;0.30;;;;;;;18.15;69.00;153257.19;11286254;26;20003;-74
2024/04/09 17:19:35;;;;;;;2.00;0.35;;;;;;;18.05;69.29;153232.47;11287671;26;20031;-74
2024/04/09 17:24:37;;;;;;;0.88;0.60;;;;;;;17.94;70.33;153203.94;11287164;26;20072;-74
2024/04/09 17:29:39;;;;;;;1.42;0.30;;;;;;;17.77;70.90;153159.81;11287054;26;20015;-74
2024/04/09 17:34:41;;;;;;;0.30;0.15;;;;;;;17.69;71.14;153139.00;11284933;26;19999;-74
2024/04/09 17:39:43;;;;;;;0.20;0.20;;;;;;;17.47;71.59;153084.47;11284822;26;20072;-73
2024/04/09 17:44:45;;;;;;;5.20;0.30;;;;;;;17.28;71.80;153036.47;11287163;26;20002;-74
2024/04/09 17:49:47;;;;;;;0.55;0.15;;;;;;;17.20;71.94;153015.72;11288247;26;20003;-74
2024/04/09 17:54:49;;;;;;;1.27;0.17;;;;;;;16.97;72.28;152957.34;11286134;26;20507;-75
2024/04/09 17:59:51;;;;;;;0.15;0.10;;;;;;;16.86;71.81;152930.09;11285189;26;20056;-74
2024/04/09 18:04:53;;;;;;;0.63;0.28;;;;;;;16.89;70.48;152936.59;11293041;26;20006;-75
2024/04/09 18:09:56;;;;;;;1.25;0.13;;;;;;;16.63;68.83;152871.69;11293986;26;20007;-74
2024/04/09 18:14:57;;;;;;;0.45;0.35;;;;;;;16.50;66.46;152837.97;11301807;26;20003;-74
2024/04/09 18:20:00;;;;;;;0.28;0.22;;;;;;;16.28;66.19;152782.19;11293788;26;19995;-74
2024/04/09 18:25:02;;;;;;;2.90;0.13;;;;;;;16.14;65.86;152747.19;11295947;26;20444;-74
2024/04/09 18:30:07;;;;;;;0.75;0.30;;;;;;;15.77;63.39;152651.31;11331017;26;20023;-74
2024/04/09 18:35:09;;;;;;;1.10;0.10;;;;;;;15.56;63.52;152599.41;11347562;26;20020;-76
2024/04/09 18:40:15;;;;;;;0.38;0.20;;;;;;;15.52;63.43;152589.03;11371231;26;19994;-74
2024/04/09 18:45:18;;;;;;;0.13;0.10;;;;;;;15.34;63.12;152542.38;11359492;26;19995;-74
2024/04/09 18:50:20;;;;;;;0.30;0.20;;;;;;;15.05;63.75;152469.84;11290315;26;20006;-74
2024/04/09 18:55:22;;;;;;;1.48;0.20;;;;;;;14.82;62.81;152411.53;11294682;26;19998;-74
2024/04/09 19:00:24;;;;;;;0.40;0.20;;;;;;;14.83;62.92;152412.81;11291541;26;20459;-74
2024/04/09 19:05:26;;;;;;;0.35;0.20;;;;;;;14.77;62.37;152397.28;11287035;26;19995;-74
2024/04/09 19:10:28;;;;;;;0.85;0.20;;;;;;;14.53;62.71;152337.72;11289678;26;20110;-74
2024/04/09 19:15:30;;;;;;;1.17;0.20;;;;;;;14.47;61.22;152320.81;11291097;26;20377;-74
2024/04/09 19:20:32;;;;;;;1.80;0.17;;;;;;;14.33;61.26;152285.88;11316202;26;20356;-73
2024/04/09 19:25:34;;;;;;;0.17;0.10;;;;;;;14.32;60.25;152284.59;11364447;26;19990;-74
2024/04/09 19:30:36;;;;;;;0.70;0.15;;;;;;;14.09;60.59;152226.34;11367603;26;20074;-73
2024/04/09 19:35:39;;;;;;;0.40;0.10;;;;;;;13.81;60.44;152155.16;11369987;26;20457;-73
2024/04/09 19:40:40;;;;;;;0.50;0.10;;;;;;;13.63;58.47;152108.53;11370130;26;19998;-73
2024/04/09 19:45:50;;;;;;;0.00;0.00;;;;;;;13.54;57.09;152085.25;11370454;26;20010;-73
2024/04/09 19:50:52;;;;;;;0.10;0.10;;;;;;;13.25;57.60;152011.50;11369214;26;20047;-73
2024/04/09 19:55:55;;;;;;;0.10;0.10;;;;;;;13.30;56.72;152025.72;11369188;26;20010;-74
2024/04/09 20:00:57;;;;;;;0.40;0.10;;;;;;;13.16;57.64;151989.47;11366353;26;20005;-74
2024/04/09 20:05:59;;;;;;;0.85;0.10;;;;;;;13.18;58.16;151993.34;11363578;26;20002;-74
2024/04/09 20:11:02;;;;;;;0.25;0.20;;;;;;;13.07;57.26;151967.47;11366012;26;19994;-73
2024/04/09 20:16:05;;;;;;;1.15;0.20;;;;;;;13.08;56.42;151970.06;11364458;26;20030;-74
2024/04/09 20:21:06;;;;;;;1.17;0.30;;;;;;;12.69;58.50;151869.16;11363051;26;19998;-74
2024/04/09 20:26:08;;;;;;;4.15;0.20;;;;;;;12.54;59.83;151832.97;11361361;26;20450;-73
2024/04/09 20:31:13;;;;;;;0.55;0.20;;;;;;;12.41;61.94;151798.06;11362942;26;20006;-73
2024/04/09 20:36:15;;;;;;;1.55;0.25;;;;;;;12.32;63.21;151776.09;11364162;26;20012;-73
2024/04/09 20:41:17;;;;;;;0.95;0.10;;;;;;;12.27;63.90;151764.44;11363753;26;20378;-75
2024/04/09 20:46:19;;;;;;;2.30;0.20;;;;;;;12.08;65.57;151715.28;11363747;26;20012;-74
2024/04/09 20:51:23;;;;;;;1.27;0.30;;;;;;;11.79;72.21;151641.59;11363385;26;19994;-73
2024/04/09 20:56:24;;;;;;;3.50;0.20;;;;;;;11.38;78.82;151538.25;11361000;26;20010;-73
2024/04/09 21:01:26;;;;;;;0.43;0.20;;;;;;;11.16;80.19;151481.41;11362059;26;20002;-74
2024/04/09 21:06:28;;;;;;;0.95;0.20;;;;;;;11.14;82.97;151477.50;11362046;26;20462;-73
2024/04/09 21:11:31;;;;;;;0.73;0.22;;;;;;;10.97;85.40;151434.88;11358853;26;20324;-73
2024/04/09 21:16:33;;;;;;;0.75;0.20;;;;;;;11.03;84.71;151450.41;11358705;26;20043;-75
2024/04/09 21:21:35;;;;;;;1.02;0.38;;;;;;;10.75;90.94;151379.31;11359805;26;20010;-72
2024/04/09 21:26:37;;;;;;;0.80;0.40;;;;;;;10.65;96.78;151352.22;11361328;26;20006;-72
2024/04/09 21:31:39;;;;;;;0.68;0.40;;;;;;;10.38;100.00;151283.81;11360570;26;19994;-72
2024/04/09 21:36:41;;;;;;;2.22;0.45;;;;;;;10.25;100.00;151252.81;11363595;26;20010;-73
2024/04/09 21:41:43;;;;;;;1.10;0.47;;;;;;;10.23;100.00;151247.63;11367710;26;19998;-72
2024/04/09 21:46:45;;;;;;;1.42;0.30;;;;;;;10.01;100.00;151192.13;11365179;26;20006;-73
2024/04/09 21:51:47;;;;;;;0.75;0.30;;;;;;;9.90;100.00;151162.41;11366638;26;20075;-72
2024/04/09 21:56:49;;;;;;;1.48;0.35;;;;;;;9.91;100.00;151166.28;11365172;26;20330;-71
2024/04/09 22:01:50;;;;;;;3.20;0.65;;;;;;;9.88;100.00;151158.56;11366405;26;20010;-71
2024/04/09 22:06:52;;;;;;;1.20;0.40;;;;;;;9.83;100.00;151145.66;11366745;26;19998;-71
2024/04/09 22:11:54;;;;;;;1.05;0.30;;;;;;;9.76;100.00;151127.59;11366172;26;20008;-72
2024/04/09 22:16:57;;;;;;;1.33;0.47;;;;;;;9.76;100.00;151128.88;11363950;26;19998;-73
2024/04/09 22:21:58;;;;;;;1.48;0.40;;;;;;;9.71;100.00;151114.69;11364958;26;20010;-72
2024/04/09 22:27:00;;;;;;;0.95;0.38;;;;;;;9.63;100.00;151094.03;11365336;26;20009;-71
2024/04/09 22:32:02;;;;;;;1.40;0.40;;;;;;;9.65;100.00;151100.50;11363771;26;20023;-72
2024/04/09 22:37:04;;;;;;;1.60;0.35;;;;;;;9.56;100.00;151078.56;11366313;26;20006;-72
2024/04/09 22:42:06;;;;;;;1.38;0.40;;;;;;;9.57;100.00;151081.13;11364322;26;19994;-72
2024/04/09 22:47:08;;;;;;;1.58;0.50;;;;;;;9.57;100.00;151081.13;11363413;26;20030;-72
2024/04/09 22:52:10;;;;;;;0.73;0.50;;;;;;;9.56;100.00;151077.25;11364673;26;20458;-72
2024/04/09 22:57:12;;;;;;;0.60;0.43;;;;;;;9.46;100.00;151052.75;11363280;26;20006;-72
2024/04/09 23:02:14;;;;;;;0.75;0.43;;;;;;;9.43;100.00;151045.03;11362110;26;20008;-72
2024/04/09 23:07:16;;;;;;;0.50;0.30;;;;;;;9.55;100.00;151074.66;11364889;26;20002;-72
2024/04/09 23:12:18;;;;;;;0.90;0.30;;;;;;;9.60;100.00;151088.84;11363800;26;19998;-72